Time;durP1;ratioP1;P1;durP2;ratioP2;P2;SDS_P1;SDS_P2;PMS_P1;PMS_P2;Temp;Humidity;BMP_temperature;BMP_pressure;BME280_temperature;BME280_humidity;BME280_pressure;Samples;Min_cycle;Max_cycle;Signal;HPM_P1;HPM_P2
2022/09/14 00:00:47;;;;;;;6.13;2.50;;;;;;;;;;5084724;28;20423;-80
2022/09/14 00:03:14;;;;;;;7.70;2.67;;;;;;;;;;5070644;28;20415;-80
2022/09/14 00:05:40;;;;;;;9.70;2.40;;;;;;;;;;5071458;28;20416;-80
2022/09/14 00:08:06;;;;;;;5.50;2.40;;;;;;;;;;5052617;28;20585;-80
2022/09/14 00:10:32;;;;;;;8.00;2.85;;;;;;;;;;5070079;28;20403;-80
2022/09/14 00:12:59;;;;;;;7.93;3.00;;;;;;;;;;5083802;28;20421;-81
2022/09/14 00:15:25;;;;;;;6.07;2.78;;;;;;;;;;5069894;28;20411;-81
2022/09/14 00:17:51;;;;;;;7.70;2.90;;;;;;;;;;5054383;28;20527;-81
2022/09/14 00:20:17;;;;;;;8.57;2.92;;;;;;;;;;5063622;28;20830;-81
2022/09/14 00:22:43;;;;;;;8.75;3.38;;;;;;;;;;5062865;28;20495;-80
2022/09/14 00:25:10;;;;;;;7.28;3.00;;;;;;;;;;5053142;28;20927;-81
2022/09/14 00:27:36;;;;;;;6.75;3.15;;;;;;;;;;5069380;28;20423;-81
2022/09/14 00:30:02;;;;;;;10.38;3.25;;;;;;;;;;5069785;28;20434;-80
2022/09/14 00:32:28;;;;;;;7.70;3.72;;;;;;;;;;5089875;28;20766;-81
2022/09/14 00:34:54;;;;;;;6.20;3.83;;;;;;;;;;5091556;28;20413;-81
2022/09/14 00:37:20;;;;;;;9.73;4.07;;;;;;;;;;5079800;28;20776;-79
2022/09/14 00:39:47;;;;;;;10.75;3.70;;;;;;;;;;5069257;28;20423;-80
2022/09/14 00:42:15;;;;;;;7.60;3.83;;;;;;;;;;5089087;28;20441;-79
2022/09/14 00:44:41;;;;;;;9.63;3.92;;;;;;;;;;5090174;28;20913;-80
2022/09/14 00:47:07;;;;;;;6.82;3.70;;;;;;;;;;5089333;28;20410;-81
2022/09/14 00:49:33;;;;;;;6.15;3.60;;;;;;;;;;5074907;28;20493;-81
2022/09/14 00:52:07;;;;;;;10.27;3.80;;;;;;;;;;5082042;28;20505;-80
2022/09/14 00:54:52;;;;;;;7.38;4.15;;;;;;;;;;5060778;28;20458;-80
2022/09/14 00:57:19;;;;;;;10.03;4.17;;;;;;;;;;5076458;28;20442;-80
2022/09/14 00:59:46;;;;;;;7.30;3.93;;;;;;;;;;5074929;28;20488;-80
2022/09/14 01:02:15;;;;;;;7.63;4.10;;;;;;;;;;5074917;28;20430;-80
2022/09/14 01:04:42;;;;;;;9.63;4.00;;;;;;;;;;5061143;28;20545;-80
2022/09/14 01:07:13;;;;;;;8.40;4.45;;;;;;;;;;5091054;28;20443;-80
2022/09/14 01:09:52;;;;;;;7.53;4.28;;;;;;;;;;5060003;28;20453;-80
2022/09/14 01:12:28;;;;;;;8.75;4.30;;;;;;;;;;5074263;28;20458;-79
2022/09/14 01:15:03;;;;;;;9.60;4.35;;;;;;;;;;5090899;28;20445;-79
2022/09/14 01:17:39;;;;;;;10.60;4.57;;;;;;;;;;5090065;28;20479;-79
2022/09/14 01:20:05;;;;;;;12.45;5.00;;;;;;;;;;5071001;28;20420;-79
2022/09/14 01:22:37;;;;;;;10.55;4.90;;;;;;;;;;5092235;27;20433;-79
2022/09/14 01:25:11;;;;;;;8.77;4.95;;;;;;;;;;5135618;27;20418;-79
2022/09/14 01:27:40;;;;;;;7.50;4.95;;;;;;;;;;5097026;28;20416;-78
2022/09/14 01:30:09;;;;;;;7.32;4.80;;;;;;;;;;5117319;27;20402;-79
2022/09/14 01:32:39;;;;;;;8.70;4.80;;;;;;;;;;5132501;27;20421;-79
2022/09/14 01:35:15;;;;;;;9.50;5.25;;;;;;;;;;5097216;27;20422;-79
2022/09/14 01:37:44;;;;;;;9.67;4.87;;;;;;;;;;5099550;28;20435;-79
2022/09/14 01:40:16;;;;;;;9.20;4.90;;;;;;;;;;5095949;28;20458;-80
2022/09/14 01:42:44;;;;;;;10.63;5.15;;;;;;;;;;5122215;27;20693;-79
2022/09/14 01:45:12;;;;;;;10.25;5.15;;;;;;;;;;5107998;27;20781;-80
2022/09/14 01:47:46;;;;;;;7.35;4.70;;;;;;;;;;5112099;27;20414;-80
2022/09/14 01:50:22;;;;;;;10.07;5.50;;;;;;;;;;5117371;27;20416;-80
2022/09/14 01:52:51;;;;;;;9.68;4.50;;;;;;;;;;5076447;27;20446;-80
2022/09/14 01:55:42;;;;;;;8.63;5.63;;;;;;;;;;5135064;27;20399;-76
2022/09/14 01:58:24;;;;;;;10.05;5.40;;;;;;;;;;5100945;27;20433;-76
2022/09/14 02:00:53;;;;;;;10.50;5.28;;;;;;;;;;5064193;27;20517;-76
2022/09/14 02:03:21;;;;;;;9.93;5.97;;;;;;;;;;5109130;28;20757;-76
2022/09/14 02:06:05;;;;;;;10.05;5.45;;;;;;;;;;5095123;28;20927;-76
2022/09/14 02:08:32;;;;;;;9.73;5.57;;;;;;;;;;5074396;28;20576;-76
2022/09/14 02:10:58;;;;;;;8.15;5.40;;;;;;;;;;5077197;27;20642;-76
2022/09/14 02:13:25;;;;;;;10.30;5.78;;;13.50;99.90;;;;;;5095903;28;20907;-76
2022/09/14 02:15:51;;;;;;;10.00;5.80;;;;;;;;;;5096109;28;20416;-76
2022/09/14 02:18:17;;;;;;;9.48;5.63;;;;;;;;;;5082428;28;20433;-76
2022/09/14 02:20:49;;;;;;;9.77;5.90;;;13.60;99.90;;;;;;5087343;27;20426;-76
2022/09/14 02:23:15;;;;;;;11.80;5.55;;;;;;;;;;5114782;27;20890;-75
2022/09/14 02:25:41;;;;;;;10.07;6.03;;;;;;;;;;5115687;27;20422;-76
2022/09/14 02:28:07;;;;;;;10.40;5.95;;;;;;;;;;5084268;28;20746;-76
2022/09/14 02:30:48;;;;;;;10.98;5.60;;;;;;;;;;5074749;28;20402;-79
2022/09/14 02:33:32;;;;;;;10.50;5.90;;;;;;;;;;5104975;28;20499;-79
2022/09/14 02:36:01;;;;;;;9.18;5.18;;;;;;;;;;5095445;28;20459;-79
2022/09/14 02:38:33;;;;;;;8.07;5.17;;;;;;;;;;5103870;28;20414;-80
2022/09/14 02:41:09;;;;;;;10.40;5.22;;;;;;;;;;5084963;27;20414;-80
2022/09/14 02:43:51;;;;;;;12.25;5.22;;;;;;;;;;5093330;27;20418;-79
2022/09/14 02:46:17;;;;;;;11.80;5.85;;;;;;;;;;5113754;27;21050;-79
2022/09/14 02:49:05;;;;;;;11.67;6.10;;;;;;;;;;5106455;27;20440;-79
2022/09/14 02:51:33;;;;;;;12.10;5.15;;;;;;;;;;5122247;27;20934;-80
2022/09/14 02:54:21;;;;;;;8.93;5.35;;;13.70;99.90;;;;;;5115643;27;20720;-80
2022/09/14 02:56:47;;;;;;;11.45;5.15;;;;;;;;;;5112950;27;20402;-81
2022/09/14 02:59:13;;;;;;;11.40;5.30;;;;;;;;;;5088443;28;20428;-79
2022/09/14 03:01:39;;;;;;;9.57;5.18;;;;;;;;;;5123508;27;20424;-80
2022/09/14 03:04:05;;;;;;;10.40;5.18;;;;;;;;;;5115322;27;20778;-80
2022/09/14 03:06:31;;;;;;;12.38;5.18;;;;;;;;;;5098543;27;20481;-80
2022/09/14 03:08:57;;;;;;;9.50;5.30;;;;;;;;;;5076808;28;20421;-79
2022/09/14 03:11:23;;;;;;;9.48;4.72;;;;;;;;;;5099542;27;20455;-79
2022/09/14 03:13:49;;;;;;;10.00;4.85;;;;;;;;;;5081996;28;20917;-79
2022/09/14 03:16:17;;;;;;;10.43;5.05;;;;;;;;;;5087718;28;20469;-79
2022/09/14 03:18:43;;;;;;;11.93;5.20;;;;;;;;;;5078404;28;20778;-79
2022/09/14 03:21:11;;;;;;;11.45;5.20;;;;;;;;;;5064128;28;20424;-79
2022/09/14 03:23:42;;;;;;;10.77;4.90;;;;;;;;;;5128655;27;20421;-79
2022/09/14 03:26:14;;;;;;;8.32;4.80;;;;;;;;;;5132993;27;20421;-79
2022/09/14 03:28:41;;;;;;;10.32;4.90;;;;;;;;;;5098660;28;20522;-79
2022/09/14 03:31:08;;;;;;;11.18;4.95;;;;;;;;;;5082175;27;20421;-81
2022/09/14 03:33:34;;;;;;;11.30;5.32;;;;;;;;;;5112346;27;20426;-80
2022/09/14 03:36:01;;;;;;;9.45;4.95;;;;;;;;;;5128692;27;20508;-79
2022/09/14 03:38:28;;;;;;;9.85;5.32;;;;;;;;;;5110860;28;20495;-80
2022/09/14 03:40:56;;;;;;;13.35;5.78;;;;;;;;;;5098646;27;20487;-80
2022/09/14 03:43:23;;;;;;;10.25;5.45;;;;;;;;;;5085316;27;20418;-80
2022/09/14 03:45:49;;;;;;;10.95;5.38;;;;;;;;;;5088486;28;20478;-79
2022/09/14 03:48:15;;;;;;;9.68;5.40;;;;;;;;;;5068794;28;20446;-79
2022/09/14 03:50:41;;;;;;;10.13;5.15;;;;;;;;;;5084938;27;20414;-79
2022/09/14 03:53:07;;;;;;;12.55;5.38;;;;;;;;;;5095319;27;20418;-80
2022/09/14 03:55:33;;;;;;;8.53;5.27;;;;;;;;;;5111300;27;20418;-79
2022/09/14 03:57:59;;;;;;;9.35;5.10;;;;;;;;;;5081189;28;20424;-79
2022/09/14 04:00:25;;;;;;;11.45;5.15;;;;;;;;;;5111002;28;20561;-80
2022/09/14 04:02:52;;;;;;;10.18;5.10;;;;;;;;;;5076181;28;20904;-80
2022/09/14 04:05:18;;;;;;;9.03;5.30;;;;;;;;;;5108954;28;20416;-80
2022/09/14 04:07:44;;;;;;;12.13;5.65;;;;;;;;;;5100138;28;20418;-79
2022/09/14 04:10:10;;;;;;;9.88;5.47;;;;;;;;;;5073130;28;20472;-80
2022/09/14 04:12:36;;;;;;;8.43;5.30;;;;;;;;;;5112831;27;20461;-78
2022/09/14 04:15:03;;;;;;;9.77;5.20;;;;;;;;;;5130647;27;20391;-78
2022/09/14 04:17:30;;;;;;;8.00;5.50;;;;;;;;;;5109997;28;20416;-79
2022/09/14 04:19:56;;;;;;;14.03;5.80;;;;;;;;;;5077102;28;20536;-78
2022/09/14 04:22:22;;;;;;;10.27;5.45;;;;;;;;;;5075957;28;20424;-78
2022/09/14 04:24:48;;;;;;;11.60;5.38;;;;;;;;;;5110708;28;20840;-80
2022/09/14 04:27:14;;;;;;;8.98;5.20;;;;;;;;;;5068963;28;20418;-80
2022/09/14 04:29:40;;;;;;;8.20;5.20;;;;;;;;;;5073617;28;20822;-80
2022/09/14 04:32:06;;;;;;;10.38;6.28;;;;;;;;;;5092377;28;20422;-80
2022/09/14 04:34:32;;;;;;;9.32;5.20;;;;;;;;;;5114944;27;20505;-79
2022/09/14 04:36:58;;;;;;;9.55;5.30;;;;;;;;;;5126987;27;20914;-79
2022/09/14 04:39:25;;;;;;;10.13;5.18;;;;;;;;;;5103327;28;20525;-79
2022/09/14 04:41:51;;;;;;;9.45;4.68;;;;;;;;;;5105359;27;20406;-80
2022/09/14 04:44:17;;;;;;;10.50;5.03;;;;;;;;;;5113571;27;20784;-79
2022/09/14 04:46:43;;;;;;;11.80;4.90;;;;;;;;;;5125215;27;20456;-80
2022/09/14 04:49:09;;;;;;;11.07;5.35;;;;;;;;;;5060813;28;20394;-80
2022/09/14 04:51:36;;;;;;;11.90;5.15;;;;;;;;;;5095424;28;20896;-80
2022/09/14 04:54:02;;;;;;;11.15;5.25;;;;;;;;;;5121369;27;20488;-81
2022/09/14 04:56:30;;;;;;;10.85;4.75;;;;;;;;;;5099977;28;20425;-80
2022/09/14 04:58:57;;;;;;;9.55;4.60;;;;;;;;;;5060247;28;20402;-81
2022/09/14 05:01:26;;;;;;;7.22;4.57;;;14.40;99.90;;;;;;5078695;27;20455;-79
2022/09/14 05:03:52;;;;;;;8.55;4.70;;;;;;;;;;5086329;28;20434;-79
2022/09/14 05:06:20;;;;;;;12.07;5.10;;;;;;;;;;5104012;27;20787;-79
2022/09/14 05:08:46;;;;;;;14.35;4.95;;;;;;;;;;5078436;28;20420;-79
2022/09/14 05:11:14;;;;;;;12.82;4.80;;;;;;;;;;5070716;27;20497;-78
2022/09/14 05:13:41;;;;;;;13.00;4.80;;;;;;;;;;5114194;27;20473;-80
2022/09/14 05:16:08;;;;;;;10.45;4.40;;;;;;;;;;5118158;27;20418;-79
2022/09/14 05:18:34;;;;;;;9.23;4.57;;;;;;;;;;5113325;27;20484;-80
2022/09/14 05:21:01;;;;;;;12.90;4.72;;;;;;;;;;5076998;27;20985;-79
2022/09/14 05:23:27;;;;;;;8.68;4.35;;;14.80;99.90;;;;;;5084437;28;20426;-80
2022/09/14 05:25:53;;;;;;;9.33;4.20;;;;;;;;;;5060575;28;20504;-81
2022/09/14 05:28:19;;;;;;;10.32;4.20;;;;;;;;;;5074564;28;20416;-80
2022/09/14 05:30:45;;;;;;;9.20;4.30;;;;;;;;;;5088674;27;20432;-81
2022/09/14 05:33:11;;;;;;;8.88;4.20;;;;;;;;;;5098083;27;20425;-80
2022/09/14 05:35:37;;;;;;;8.45;4.03;;;;;;;;;;5101776;27;21022;-81
2022/09/14 05:38:03;;;;;;;10.48;4.57;;;;;;;;;;5095289;28;20417;-80
2022/09/14 05:40:29;;;;;;;9.00;4.40;;;;;;;;;;5086404;28;20884;-81
2022/09/14 05:42:56;;;;;;;7.25;3.92;;;;;;;;;;5083448;27;20840;-81
2022/09/14 05:45:22;;;;;;;10.05;4.00;;;;;;;;;;5106816;27;20747;-81
2022/09/14 05:47:48;;;;;;;10.40;4.15;;;;;;;;;;5099883;28;20412;-81
2022/09/14 05:50:15;;;;;;;8.35;4.22;;;;;;;;;;5093342;27;20414;-79
2022/09/14 05:52:40;;;;;;;8.82;4.40;;;14.70;99.90;;;;;;5088122;28;20421;-79
2022/09/14 05:55:06;;;;;;;9.25;4.82;;;;;;;;;;5092006;27;20866;-79
2022/09/14 05:57:33;;;;;;;10.95;5.03;;;;;;;;;;5089048;27;20770;-79
2022/09/14 05:59:59;;;;;;;11.65;5.72;;;;;;;;;;5087470;28;20510;-79
2022/09/14 06:02:25;;;;;;;8.23;4.70;;;;;;;;;;5079141;27;20418;-78
2022/09/14 06:04:51;;;;;;;8.75;5.30;;;;;;;;;;5095790;27;20429;-78
2022/09/14 06:07:17;;;;;;;10.20;5.20;;;;;;;;;;5109203;27;20858;-77
2022/09/14 06:09:43;;;;;;;11.03;5.90;;;;;;;;;;5096118;27;20434;-77
2022/09/14 06:12:09;;;;;;;12.07;6.07;;;;;;;;;;5093375;27;20426;-77
2022/09/14 06:14:35;;;;;;;12.23;5.95;;;;;;;;;;5097559;27;20988;-78
2022/09/14 06:17:01;;;;;;;10.45;6.05;;;;;;;;;;5094507;27;20419;-77
2022/09/14 06:19:27;;;;;;;9.40;5.90;;;14.90;99.90;;;;;;5107491;28;20413;-78
2022/09/14 06:21:53;;;;;;;11.27;5.80;;;;;;;;;;5104864;28;20984;-78
2022/09/14 06:24:20;;;;;;;10.57;6.05;;;;;;;;;;5098468;28;20421;-77
2022/09/14 06:26:46;;;;;;;10.25;5.78;;;;;;;;;;5106790;28;20459;-77
2022/09/14 06:29:12;;;;;;;10.25;6.07;;;;;;;;;;5081831;28;20416;-77
2022/09/14 06:31:38;;;;;;;12.47;6.10;;;;;;;;;;5093080;28;20473;-77
2022/09/14 06:34:04;;;;;;;10.75;5.75;;;;;;;;;;5097811;28;20427;-76
2022/09/14 06:36:30;;;;;;;10.73;5.95;;;;;;;;;;5096543;28;20929;-77
2022/09/14 06:38:58;;;;;;;11.05;5.65;;;;;;;;;;5081576;28;20428;-77
2022/09/14 06:41:29;;;;;;;11.18;6.00;;;15.00;99.90;;;;;;5091128;28;20892;-77
2022/09/14 06:43:56;;;;;;;9.98;5.80;;;;;;;;;;5098813;28;20432;-77
2022/09/14 06:46:26;;;;;;;9.40;5.65;;;;;;;;;;5079277;28;20559;-78
2022/09/14 06:48:57;;;;;;;10.35;5.85;;;;;;;;;;5086607;28;20427;-77
2022/09/14 06:51:33;;;;;;;11.00;5.50;;;15.50;99.90;;;;;;5084529;28;20431;-77
2022/09/14 06:54:00;;;;;;;9.82;5.53;;;;;;;;;;5081765;28;20908;-77
2022/09/14 06:56:38;;;;;;;9.70;5.47;;;15.40;99.90;;;;;;5083497;28;20431;-77
2022/09/14 06:59:46;;;;;;;10.02;4.90;;;15.70;99.90;;;;;;5090793;28;20424;-75
2022/09/14 07:02:12;;;;;;;11.17;5.37;;;15.30;99.90;;;;;;5087029;28;21006;-75
2022/09/14 07:04:38;;;;;;;16.02;5.20;;;15.60;99.90;;;;;;5087736;28;20425;-75
2022/09/14 07:07:04;;;;;;;10.18;4.57;;;;;;;;;;5063026;28;20412;-75
2022/09/14 07:09:30;;;;;;;10.13;4.40;;;;;;;;;;5088118;28;20424;-75
2022/09/14 07:11:56;;;;;;;8.03;3.77;;;;;;;;;;5071493;28;20485;-76
2022/09/14 07:14:22;;;;;;;7.15;3.80;;;;;;;;;;5087898;28;20419;-75
2022/09/14 07:16:49;;;;;;;7.85;3.85;;;;;;;;;;5098353;28;20422;-76
2022/09/14 07:19:15;;;;;;;7.85;3.53;;;;;;;;;;5097268;28;20802;-75
2022/09/14 07:21:41;;;;;;;7.20;3.60;;;;;;;;;;5098394;28;20806;-74
2022/09/14 07:24:07;;;;;;;7.80;3.22;;;;;;;;;;5086310;28;20471;-75
2022/09/14 07:26:38;;;;;;;11.73;3.58;;;16.50;99.90;;;;;;5099996;28;20420;-75
2022/09/14 07:29:07;;;;;;;7.55;3.05;;;16.30;99.90;;;;;;5092158;28;20923;-74
2022/09/14 07:31:35;;;;;;;6.65;2.85;;;;;;;;;;5088467;28;20419;-74
2022/09/14 07:34:02;;;;;;;8.32;2.88;;;16.50;99.90;;;;;;5106373;28;20419;-74
2022/09/14 07:36:30;;;;;;;7.72;3.03;;;16.50;99.90;;;;;;5102958;28;20424;-74
2022/09/14 07:38:56;;;;;;;11.93;2.80;;;;;;;;;;5109946;28;20983;-74
2022/09/14 07:41:24;;;;;;;9.60;2.70;;;;;;;;;;5104296;28;20426;-75
2022/09/14 07:43:50;;;;;;;6.95;2.40;;;;;;;;;;5077874;28;20428;-75
2022/09/14 07:46:17;;;;;;;8.43;2.95;;;;;;;;;;5077914;28;20428;-74
2022/09/14 07:48:43;;;;;;;7.93;2.40;;;16.90;99.90;;;;;;5101128;28;20421;-75
2022/09/14 07:51:10;;;;;;;7.40;3.03;;;;;;;;;;5092950;28;20415;-74
2022/09/14 07:53:41;;;;;;;11.73;2.83;;;17.00;99.90;;;;;;5082206;28;20456;-75
2022/09/14 07:56:08;;;;;;;10.43;2.63;;;;;;;;;;5084286;28;20461;-74
2022/09/14 07:58:34;;;;;;;9.13;2.50;;;;;;;;;;5101682;28;20477;-75
2022/09/14 08:01:03;;;;;;;10.68;2.60;;;17.20;99.90;;;;;;5090055;28;20424;-73
2022/09/14 08:03:30;;;;;;;7.40;2.28;;;;;;;;;;5090521;28;20408;-74
2022/09/14 08:06:00;;;;;;;7.80;2.30;;;;;;;;;;5084432;28;20431;-75
2022/09/14 08:08:31;;;;;;;7.47;2.40;;;;;;;;;;5094769;28;20424;-75
2022/09/14 08:11:10;;;;;;;5.00;2.17;;;17.50;99.90;;;;;;5090923;28;20427;-74
2022/09/14 08:13:36;;;;;;;6.50;1.75;;;;;;;;;;5096344;28;20939;-74
2022/09/14 08:16:03;;;;;;;7.93;1.90;;;;;;;;;;5107274;28;20416;-75
2022/09/14 08:18:29;;;;;;;6.60;2.20;;;17.30;99.90;;;;;;5098881;28;20424;-75
2022/09/14 08:20:56;;;;;;;7.40;1.85;;;17.40;99.90;;;;;;5098896;28;20424;-75
2022/09/14 08:23:22;;;;;;;6.32;2.22;;;;;;;;;;5099479;28;20430;-75
2022/09/14 08:25:49;;;;;;;8.43;2.00;;;;;;;;;;5101669;28;20938;-75
2022/09/14 08:28:15;;;;;;;5.55;1.70;;;;;;;;;;5086000;28;20415;-74
2022/09/14 08:30:42;;;;;;;11.13;2.20;;;;;;;;;;5084009;28;20408;-74
2022/09/14 08:33:08;;;;;;;7.80;1.73;;;;;;;;;;5080039;28;20421;-75
2022/09/14 08:35:40;;;;;;;5.55;1.70;;;17.80;99.90;;;;;;5076772;28;20502;-74
2022/09/14 08:38:06;;;;;;;7.03;1.70;;;;;;;;;;5091287;28;20420;-74
2022/09/14 08:40:32;;;;;;;6.65;1.90;;;;;;;;;;5081650;28;20422;-75
2022/09/14 08:43:01;;;;;;;7.50;2.23;;;;;;;;;;5094284;28;20905;-74
2022/09/14 08:45:28;;;;;;;11.18;1.95;;;;;;;;;;5114822;28;20420;-74
2022/09/14 08:47:56;;;;;;;5.15;1.67;;;17.90;99.90;;;;;;5091504;28;20431;-75
2022/09/14 08:50:23;;;;;;;5.47;1.67;;;18.20;99.90;;;;;;5106227;28;20970;-75
2022/09/14 08:52:52;;;;;;;6.57;1.90;;;18.10;99.90;;;;;;5086797;28;20417;-75
2022/09/14 08:55:33;;;;;;;9.32;1.90;;;;;;;;;;5097415;28;20425;-75
2022/09/14 08:58:13;;;;;;;7.53;1.75;;;18.60;99.90;;;;;;5081820;28;20457;-74
2022/09/14 09:01:07;;;;;;;6.87;1.60;;;18.80;99.90;;;;;;5101303;28;20709;-74
2022/09/14 09:04:02;;;;;;;9.45;1.50;;;19.20;99.90;;;;;;5094954;28;20406;-74
2022/09/14 09:06:51;;;;;;;7.90;1.60;;;19.30;99.90;;;;;;5092194;28;20420;-73
2022/09/14 09:09:27;;;;;;;7.22;1.70;;;;;;;;;;5084898;28;20838;-74
2022/09/14 09:11:54;;;;;;;8.40;1.65;;;19.50;99.90;;;;;;5099786;28;21018;-73
2022/09/14 09:14:49;;;;;;;7.25;1.40;;;;;;;;;;5093199;28;20419;-73
2022/09/14 09:17:39;;;;;;;13.27;1.60;;;19.70;99.90;;;;;;5051954;28;20774;-74
2022/09/14 09:20:17;;;;;;;7.07;1.60;;;19.80;99.90;;;;;;5094219;28;20466;-74
2022/09/14 09:22:48;;;;;;;7.35;1.40;;;;;;;;;;5076435;28;20476;-73
2022/09/14 09:25:29;;;;;;;6.63;1.50;;;19.90;99.90;;;;;;5073598;28;20459;-74
2022/09/14 09:28:01;;;;;;;8.45;1.70;;;19.90;99.90;;;;;;5086776;28;20414;-74
2022/09/14 09:30:28;;;;;;;7.00;1.70;;;20.10;99.90;;;;;;5090455;28;20420;-73
2022/09/14 09:32:54;;;;;;;6.85;1.70;;;20.30;99.90;;;;;;5084827;28;20416;-74
2022/09/14 09:35:23;;;;;;;6.82;1.58;;;20.30;99.90;;;;;;5085245;28;20429;-73
2022/09/14 09:37:49;;;;;;;6.63;1.45;;;20.10;99.90;;;;;;5069507;28;20476;-73
2022/09/14 09:40:35;;;;;;;8.80;1.60;;;20.30;99.90;;;;;;5088133;28;21017;-73
2022/09/14 09:43:11;;;;;;;6.60;1.20;;;20.50;99.90;;;;;;5073380;28;20480;-73
2022/09/14 09:45:48;;;;;;;8.07;1.60;;;20.00;99.90;;;;;;5072912;28;20432;-74
2022/09/14 09:48:17;;;;;;;5.43;1.30;;;19.80;99.90;;;;;;5086650;28;20755;-75
2022/09/14 09:50:55;;;;;;;8.68;1.83;;;19.60;99.90;;;;;;5087949;28;20410;-73
2022/09/14 09:53:22;;;;;;;4.68;1.10;;;19.40;99.90;;;;;;5085209;28;20513;-74
2022/09/14 09:55:49;;;;;;;4.80;1.20;;;19.60;99.90;;;;;;5073695;28;20407;-74
2022/09/14 09:58:32;;;;;;;4.80;1.43;;;20.00;99.90;;;;;;5086110;28;20415;-73
2022/09/14 10:01:05;;;;;;;5.82;1.02;;;20.40;99.90;;;;;;5083358;28;20423;-73
2022/09/14 10:03:33;;;;;;;4.63;1.05;;;;;;;;;;5072618;28;20455;-75
2022/09/14 10:06:11;;;;;;;6.30;1.30;;;20.30;99.90;;;;;;5057856;28;20785;-75
2022/09/14 10:08:42;;;;;;;5.40;1.20;;;20.40;99.90;;;;;;5073002;28;20969;-74
2022/09/14 10:11:31;;;;;;;4.57;1.20;;;20.30;99.90;;;;;;5073963;28;20910;-75
2022/09/14 10:13:58;;;;;;;9.77;1.50;;;20.50;99.90;;;;;;5083628;28;20462;-75
2022/09/14 10:16:28;;;;;;;4.53;1.10;;;20.60;99.90;;;;;;5073187;28;20411;-73
2022/09/14 10:18:54;;;;;;;6.63;1.38;;;;;;;;;;5076056;28;20477;-76
2022/09/14 10:21:24;;;;;;;4.07;1.15;;;21.00;99.90;;;;;;5088229;27;20422;-75
2022/09/14 10:24:18;;;;;;;5.47;1.40;;;21.10;99.90;;;;;;5097135;27;20606;-75
2022/09/14 10:26:44;;;;;;;3.05;1.00;;;21.50;99.90;;;;;;5096756;28;20421;-75
2022/09/14 10:29:33;;;;;;;6.50;1.08;;;21.70;99.90;;;;;;5077036;27;20412;-75
2022/09/14 10:32:14;;;;;;;3.90;1.13;;;21.60;99.90;;;;;;5117231;27;20479;-75
2022/09/14 10:34:41;;;;;;;2.38;0.90;;;21.50;99.90;;;;;;5096798;28;20408;-75
2022/09/14 10:37:25;;;;;;;4.72;1.25;;;21.30;99.90;;;;;;5078127;27;20424;-75
2022/09/14 10:40:18;;;;;;;4.45;1.50;;;21.50;99.90;;;;;;5088680;27;20452;-75
2022/09/14 10:42:58;;;;;;;5.53;1.80;;;21.30;99.90;;;;;;5068931;28;20420;-74
2022/09/14 10:45:37;;;;;;;5.40;1.58;;;21.30;99.90;;;;;;5108453;27;20428;-75
2022/09/14 10:48:29;;;;;;;11.18;1.52;;;21.50;99.90;;;;;;5087024;28;20518;-74
2022/09/14 10:50:55;;;;;;;5.67;1.20;;;21.10;99.90;;;;;;5110480;28;20414;-75
2022/09/14 10:53:49;;;;;;;5.10;1.30;;;21.50;99.90;;;;;;5077406;28;20406;-75
2022/09/14 10:56:23;;;;;;;7.05;1.33;;;21.20;99.90;;;;;;5106002;27;20410;-73
2022/09/14 10:59:05;;;;;;;8.55;3.63;;;21.20;99.90;;;;;;5098203;27;20418;-73
2022/09/14 11:02:08;;;;;;;6.65;2.08;;;21.20;99.90;;;;;;5110367;28;20431;-75
2022/09/14 11:04:59;;;;;;;8.50;4.13;;;20.60;99.90;;;;;;5078490;28;20461;-73
2022/09/14 11:07:33;;;;;;;5.07;1.98;;;20.50;99.90;;;;;;5085322;27;20418;-74
2022/09/14 11:10:25;;;;;;;4.97;2.00;;;20.60;99.90;;;;;;5093819;27;20485;-75
2022/09/14 11:13:31;;;;;;;7.28;1.95;;;20.30;99.90;;;;;;5112744;27;20425;-75
2022/09/14 11:15:57;;;;;;;5.20;1.70;;;;;;;;;;5115109;27;20490;-74
2022/09/14 11:18:32;;;;;;;6.35;2.28;;;;;;;;;;5093542;28;20422;-74
2022/09/14 11:21:10;;;;;;;6.25;1.20;;;;;;;;;;5075723;28;20431;-75
2022/09/14 11:23:43;;;;;;;3.63;1.07;;;;;;;;;;5123475;27;20421;-75
2022/09/14 11:26:31;;;;;;;6.65;1.67;;;;;;;;;;5103160;27;20414;-74
2022/09/14 11:29:09;;;;;;;7.57;1.90;;;20.40;99.90;;;;;;5061571;28;20507;-74
2022/09/14 11:31:48;;;;;;;6.45;1.38;;;20.30;99.90;;;;;;5078192;27;20774;-74
2022/09/14 11:34:37;;;;;;;4.95;1.10;;;20.70;99.90;;;;;;5113137;27;20916;-74
2022/09/14 11:37:09;;;;;;;4.72;1.27;;;20.70;99.90;;;;;;5099545;28;20474;-74
2022/09/14 11:39:46;;;;;;;6.78;2.33;;;20.80;99.90;;;;;;5091952;28;20419;-73
2022/09/14 11:42:42;;;;;;;5.72;1.48;;;20.80;99.90;;;;;;5097162;28;20454;-74
2022/09/14 11:45:33;;;;;;;5.13;1.33;;;20.60;99.90;;;;;;5075133;27;20509;-75
2022/09/14 11:48:20;;;;;;;3.67;1.23;;;20.60;99.90;;;;;;5107704;27;20422;-75
2022/09/14 11:50:50;;;;;;;5.38;1.20;;;20.80;99.90;;;;;;5098933;28;20493;-74
2022/09/14 11:53:17;;;;;;;8.05;1.42;;;20.80;99.90;;;;;;5101751;27;20441;-75
2022/09/14 11:55:46;;;;;;;7.35;1.50;;;21.10;99.90;;;;;;5114345;27;20414;-75
2022/09/14 11:58:24;;;;;;;5.90;1.27;;;21.20;99.90;;;;;;5079546;28;20416;-75
2022/09/14 12:01:20;;;;;;;6.38;1.50;;;21.30;99.90;;;;;;5091129;28;20419;-75
2022/09/14 12:04:14;;;;;;;5.15;1.45;;;21.30;99.90;;;;;;5118576;27;20443;-75
2022/09/14 12:06:40;;;;;;;5.82;1.65;;;21.50;99.90;;;;;;5069919;28;20510;-76
2022/09/14 12:09:20;;;;;;;6.18;1.40;;;21.30;99.90;;;;;;5110460;28;20408;-76
2022/09/14 12:11:48;;;;;;;5.68;1.63;;;;;;;;;;5074518;28;20394;-76
2022/09/14 12:14:22;;;;;;;6.97;1.40;;;21.20;99.90;;;;;;5099217;27;20863;-77
2022/09/14 12:17:04;;;;;;;6.53;1.70;;;21.40;99.90;;;;;;5099144;28;20423;-77
2022/09/14 12:19:31;;;;;;;4.95;1.42;;;21.50;99.90;;;;;;5111304;28;20404;-77
2022/09/14 12:22:36;;;;;;;6.40;1.95;;;21.80;99.90;;;;;;5077906;28;20400;-74
2022/09/14 12:25:08;;;;;;;7.10;2.25;;;21.90;99.90;;;;;;5071951;28;20894;-76
2022/09/14 12:27:37;;;;;;;7.78;1.70;;;22.20;99.90;;;;;;5090888;28;20913;-75
2022/09/14 12:30:54;;;;;;;6.60;3.28;;;21.90;99.90;;;;;;5114396;28;20410;-76
2022/09/14 12:33:32;;;;;;;7.00;3.47;;;21.40;99.90;;;;;;5095862;28;20397;-76
2022/09/14 12:36:04;;;;;;;4.35;1.30;;;21.40;99.90;;;;;;5104789;28;20747;-75
2022/09/14 12:38:29;;;;;;;7.20;1.42;;;21.70;99.90;;;;;;5095253;28;20449;-75
2022/09/14 12:40:56;;;;;;;6.93;1.45;;;21.80;99.90;;;;;;5113033;28;20396;-76
2022/09/14 12:43:34;;;;;;;6.13;1.48;;;21.70;99.90;;;;;;5095298;28;20392;-76
2022/09/14 12:46:00;;;;;;;6.78;1.30;;;22.20;99.90;;;;;;5078226;28;20485;-76
2022/09/14 12:48:48;;;;;;;6.35;1.30;;;22.20;99.90;;;;;;5068563;28;20426;-76
2022/09/14 12:51:25;;;;;;;5.88;1.70;;;21.90;99.90;;;;;;5094319;28;20978;-77
2022/09/14 12:54:23;;;;;;;4.57;1.30;;;22.20;99.90;;;;;;5113273;27;20486;-75
2022/09/14 12:57:15;;;;;;;5.18;1.35;;;22.50;99.90;;;;;;5076531;28;20451;-75
2022/09/14 13:00:03;;;;;;;7.30;1.50;;;22.20;99.90;;;;;;5084248;27;20551;-76
2022/09/14 13:02:42;;;;;;;5.43;1.25;;;22.40;99.90;;;;;;5089086;28;20431;-75
2022/09/14 13:05:17;;;;;;;9.23;2.25;;;22.30;99.90;;;;;;5088459;28;20426;-75
2022/09/14 13:07:44;;;;;;;7.17;1.50;;;22.40;99.90;;;;;;5106986;28;20465;-74
2022/09/14 13:10:46;;;;;;;5.47;1.60;;;22.30;99.90;;;;;;5115216;27;20408;-75
2022/09/14 13:13:29;;;;;;;7.37;1.47;;;21.80;99.90;;;;;;5055973;28;20487;-75
2022/09/14 13:15:57;;;;;;;7.72;3.42;;;22.20;99.90;;;;;;5083994;27;20480;-75
2022/09/14 13:18:35;;;;;;;10.02;5.45;;;22.10;99.90;;;;;;5080102;28;20420;-74
2022/09/14 13:21:22;;;;;;;4.85;1.70;;;22.40;99.90;;;;;;5080985;28;20422;-75
2022/09/14 13:23:54;;;;;;;5.13;1.40;;;22.20;99.90;;;;;;5089908;27;20914;-75
2022/09/14 13:26:24;;;;;;;4.25;1.20;;;22.00;99.90;;;;;;5097722;28;20416;-75
2022/09/14 13:28:53;;;;;;;4.57;1.60;;;21.50;99.90;;;;;;5088763;28;20420;-74
2022/09/14 13:31:34;;;;;;;4.22;1.10;;;21.40;99.90;;;;;;5103408;28;20474;-75
2022/09/14 13:34:01;;;;;;;4.10;1.25;;;21.40;99.90;;;;;;5121012;27;20827;-77
2022/09/14 13:36:30;;;;;;;6.85;3.63;;;21.30;99.90;;;;;;5123190;27;20461;-77
2022/09/14 13:39:00;;;;;;;6.47;3.53;;;21.30;99.90;;;;;;5121220;27;20815;-77
2022/09/14 13:41:28;;;;;;;5.63;2.10;;;21.10;99.90;;;;;;5095097;27;20424;-77
2022/09/14 13:43:56;;;;;;;7.97;2.70;;;21.10;99.90;;;;;;5125494;27;20811;-77
2022/09/14 13:46:23;;;;;;;10.48;6.32;;;;;;;;;;5078484;28;20428;-77
2022/09/14 13:48:51;;;;;;;7.80;2.95;;;20.80;99.90;;;;;;5100612;27;20418;-77
2022/09/14 13:51:25;;;;;;;6.65;2.00;;;;;;;;;;5100986;28;20459;-76
2022/09/14 13:53:54;;;;;;;6.72;1.92;;;20.80;99.90;;;;;;5108613;27;20522;-75
2022/09/14 13:56:32;;;;;;;8.55;1.85;;;21.30;99.90;;;;;;5118035;27;20407;-75
2022/09/14 13:59:10;;;;;;;7.95;2.10;;;;;;;;;;5083425;28;20509;-74
2022/09/14 14:01:42;;;;;;;5.43;1.30;;;21.40;99.90;;;;;;5076945;28;20424;-75
2022/09/14 14:04:22;;;;;;;5.85;1.70;;;21.40;99.90;;;;;;5097718;28;20423;-75
2022/09/14 14:07:07;;;;;;;5.10;1.67;;;21.30;99.90;;;;;;5095972;28;20423;-75
2022/09/14 14:09:49;;;;;;;7.25;1.80;;;21.30;99.90;;;;;;5079331;28;20421;-75
2022/09/14 14:12:28;;;;;;;6.90;1.45;;;21.30;99.90;;;;;;5087866;28;20430;-75
2022/09/14 14:15:32;;;;;;;8.77;1.60;;;20.80;99.90;;;;;;5124333;27;20416;-75